sensor_id;sensor_type;location;lat;lon;timestamp;pressure;altitude;pressure_sealevel;temperature;humidity
72210;BME280;60113;48.762;12.302;2023-04-10T00:01:24;98025.41;;;-1.41;85.28
72210;BME280;60113;48.762;12.302;2023-04-10T00:03:49;98023.56;;;-1.34;79.27
72210;BME280;60113;48.762;12.302;2023-04-10T00:06:14;98025.97;;;-1.22;84.15
72210;BME280;60113;48.762;12.302;2023-04-10T00:08:40;98024.16;;;-1.17;83.71
72210;BME280;60113;48.762;12.302;2023-04-10T00:11:05;98024.94;;;-1.13;81.87
72210;BME280;60113;48.762;12.302;2023-04-10T00:13:31;98028.34;;;-1.09;84.22
72210;BME280;60113;48.762;12.302;2023-04-10T00:15:56;98023.13;;;-1.06;78.55
72210;BME280;60113;48.762;12.302;2023-04-10T00:18:22;98017.88;;;-1.00;84.50
72210;BME280;60113;48.762;12.302;2023-04-10T00:20:48;98019.56;;;-0.99;84.31
72210;BME280;60113;48.762;12.302;2023-04-10T00:23:13;98011.03;;;-1.01;83.76
72210;BME280;60113;48.762;12.302;2023-04-10T00:25:38;98011.00;;;-0.99;84.61
72210;BME280;60113;48.762;12.302;2023-04-10T00:28:04;98019.53;;;-0.97;86.56
72210;BME280;60113;48.762;12.302;2023-04-10T00:30:29;98017.84;;;-0.98;89.47
72210;BME280;60113;48.762;12.302;2023-04-10T00:32:56;98020.53;;;-1.05;88.58
72210;BME280;60113;48.762;12.302;2023-04-10T00:35:21;98006.78;;;-1.07;87.09
72210;BME280;60113;48.762;12.302;2023-04-10T00:37:47;98013.66;;;-1.04;93.84
72210;BME280;60113;48.762;12.302;2023-04-10T00:40:14;98012.88;;;-1.11;93.59
72210;BME280;60113;48.762;12.302;2023-04-10T00:42:39;98017.34;;;-1.22;90.82
72210;BME280;60113;48.762;12.302;2023-04-10T00:45:05;98020.91;;;-1.30;90.24
72210;BME280;60113;48.762;12.302;2023-04-10T00:47:30;98024.56;;;-1.42;87.26
72210;BME280;60113;48.762;12.302;2023-04-10T00:49:56;98016.88;;;-1.46;83.47
72210;BME280;60113;48.762;12.302;2023-04-10T00:52:22;98010.88;;;-1.48;83.78
72210;BME280;60113;48.762;12.302;2023-04-10T00:54:52;98018.63;;;-1.48;84.61
72210;BME280;60113;48.762;12.302;2023-04-10T00:57:17;98000.66;;;-1.55;73.76
72210;BME280;60113;48.762;12.302;2023-04-10T00:59:43;98004.09;;;-1.54;79.00
72210;BME280;60113;48.762;12.302;2023-04-10T01:02:09;98002.41;;;-1.54;83.94
72210;BME280;60113;48.762;12.302;2023-04-10T01:04:37;97999.84;;;-1.57;81.10
72210;BME280;60113;48.762;12.302;2023-04-10T01:07:11;98001.56;;;-1.57;77.44
72210;BME280;60113;48.762;12.302;2023-04-10T01:09:49;97997.31;;;-1.58;76.56
72210;BME280;60113;48.762;12.302;2023-04-10T01:14:57;97991.25;;;-1.56;85.98
72210;BME280;60113;48.762;12.302;2023-04-10T01:20:08;97979.16;;;-1.52;87.63
72210;BME280;60113;48.762;12.302;2023-04-10T01:30:24;97980.13;;;-1.59;80.26
72210;BME280;60113;48.762;12.302;2023-04-10T01:32:50;97986.13;;;-1.59;81.93
72210;BME280;60113;48.762;12.302;2023-04-10T01:35:17;97985.34;;;-1.64;82.84
72210;BME280;60113;48.762;12.302;2023-04-10T01:37:43;97986.19;;;-1.64;85.93
72210;BME280;60113;48.762;12.302;2023-04-10T01:40:13;97993.03;;;-1.63;85.85
72210;BME280;60113;48.762;12.302;2023-04-10T01:42:40;97989.63;;;-1.61;84.83
72210;BME280;60113;48.762;12.302;2023-04-10T01:45:08;97987.88;;;-1.61;82.20
72210;BME280;60113;48.762;12.302;2023-04-10T01:47:36;97988.72;;;-1.60;81.00
72210;BME280;60113;48.762;12.302;2023-04-10T01:50:01;97991.28;;;-1.59;83.11
72210;BME280;60113;48.762;12.302;2023-04-10T01:52:27;97988.72;;;-1.60;84.35
72210;BME280;60113;48.762;12.302;2023-04-10T01:54:54;97986.22;;;-1.65;84.34
72210;BME280;60113;48.762;12.302;2023-04-10T01:57:21;97984.59;;;-1.71;85.52
72210;BME280;60113;48.762;12.302;2023-04-10T01:59:48;97982.97;;;-1.80;85.42
72210;BME280;60113;48.762;12.302;2023-04-10T02:02:13;97985.63;;;-1.86;80.94
72210;BME280;60113;48.762;12.302;2023-04-10T02:04:38;97985.63;;;-1.84;80.54
72210;BME280;60113;48.762;12.302;2023-04-10T02:09:49;97979.59;;;-1.82;82.73
72210;BME280;60113;48.762;12.302;2023-04-10T02:12:21;97972.72;;;-1.83;82.03
72210;BME280;60113;48.762;12.302;2023-04-10T02:14:48;97966.69;;;-1.80;81.00
72210;BME280;60113;48.762;12.302;2023-04-10T02:17:15;97965.75;;;-1.76;84.03
72210;BME280;60113;48.762;12.302;2023-04-10T02:19:42;97965.84;;;-1.82;83.84
72210;BME280;60113;48.762;12.302;2023-04-10T02:22:09;97955.59;;;-1.87;86.02
72210;BME280;60113;48.762;12.302;2023-04-10T02:24:36;97962.50;;;-1.89;84.32
72210;BME280;60113;48.762;12.302;2023-04-10T02:27:01;97963.34;;;-1.89;80.74
72210;BME280;60113;48.762;12.302;2023-04-10T02:29:26;97966.78;;;-1.88;77.74
72210;BME280;60113;48.762;12.302;2023-04-10T02:31:52;97961.66;;;-1.88;77.86
72210;BME280;60113;48.762;12.302;2023-04-10T02:34:17;97968.50;;;-1.87;78.73
72210;BME280;60113;48.762;12.302;2023-04-10T02:36:43;97968.50;;;-1.89;78.15
72210;BME280;60113;48.762;12.302;2023-04-10T02:39:08;97971.16;;;-1.93;81.08
72210;BME280;60113;48.762;12.302;2023-04-10T02:41:33;97970.28;;;-1.94;86.39
72210;BME280;60113;48.762;12.302;2023-04-10T02:43:59;97978.09;;;-1.98;91.36
72210;BME280;60113;48.762;12.302;2023-04-10T02:46:24;97976.50;;;-2.07;90.86
72210;BME280;60113;48.762;12.302;2023-04-10T02:48:50;97977.50;;;-2.18;87.72
72210;BME280;60113;48.762;12.302;2023-04-10T02:51:16;97975.00;;;-2.26;87.47
72210;BME280;60113;48.762;12.302;2023-04-10T02:53:41;97969.94;;;-2.32;86.30
72210;BME280;60113;48.762;12.302;2023-04-10T02:56:08;97970.81;;;-2.31;85.15
72210;BME280;60113;48.762;12.302;2023-04-10T02:58:35;97964.78;;;-2.30;83.99
72210;BME280;60113;48.762;12.302;2023-04-10T03:01:01;97973.31;;;-2.27;85.35
72210;BME280;60113;48.762;12.302;2023-04-10T03:03:27;97981.94;;;-2.31;84.96
72210;BME280;60113;48.762;12.302;2023-04-10T03:05:52;97986.28;;;-2.34;86.18
72210;BME280;60113;48.762;12.302;2023-04-10T03:08:18;97980.31;;;-2.38;88.38
72210;BME280;60113;48.762;12.302;2023-04-10T03:10:43;97976.94;;;-2.45;83.84
72210;BME280;60113;48.762;12.302;2023-04-10T03:13:09;97980.44;;;-2.49;83.06
72210;BME280;60113;48.762;12.302;2023-04-10T03:15:35;97983.06;;;-2.54;80.64
72210;BME280;60113;48.762;12.302;2023-04-10T03:18:00;97980.56;;;-2.60;81.14
72210;BME280;60113;48.762;12.302;2023-04-10T03:20:26;97983.19;;;-2.65;83.45
72210;BME280;60113;48.762;12.302;2023-04-10T03:22:51;97990.09;;;-2.68;81.89
72210;BME280;60113;48.762;12.302;2023-04-10T03:25:17;97992.56;;;-2.62;91.27
72210;BME280;60113;48.762;12.302;2023-04-10T03:27:42;97992.66;;;-2.67;90.45
72210;BME280;60113;48.762;12.302;2023-04-10T03:30:07;97982.44;;;-2.73;87.82
72210;BME280;60113;48.762;12.302;2023-04-10T03:32:33;97984.13;;;-2.73;83.78
72210;BME280;60113;48.762;12.302;2023-04-10T03:34:58;97995.31;;;-2.74;80.01
72210;BME280;60113;48.762;12.302;2023-04-10T03:37:24;97995.28;;;-2.73;81.01
72210;BME280;60113;48.762;12.302;2023-04-10T03:39:51;98002.13;;;-2.72;80.35
72210;BME280;60113;48.762;12.302;2023-04-10T03:42:17;97991.78;;;-2.66;82.67
72210;BME280;60113;48.762;12.302;2023-04-10T03:44:42;97990.03;;;-2.64;81.06
72210;BME280;60113;48.762;12.302;2023-04-10T03:47:07;97992.59;;;-2.65;73.38
72210;BME280;60113;48.762;12.302;2023-04-10T03:49:33;97989.16;;;-2.61;85.15
72210;BME280;60113;48.762;12.302;2023-04-10T03:51:58;97983.25;;;-2.71;72.07
72210;BME280;60113;48.762;12.302;2023-04-10T03:54:23;97993.56;;;-2.74;80.94
72210;BME280;60113;48.762;12.302;2023-04-10T03:56:49;97991.06;;;-2.80;77.60
72210;BME280;60113;48.762;12.302;2023-04-10T03:59:14;97994.53;;;-2.83;79.67
72210;BME280;60113;48.762;12.302;2023-04-10T04:01:40;98005.69;;;-2.82;82.33
72210;BME280;60113;48.762;12.302;2023-04-10T04:04:05;98003.88;;;-2.76;87.15
72210;BME280;60113;48.762;12.302;2023-04-10T04:06:30;98001.25;;;-2.71;85.43
72210;BME280;60113;48.762;12.302;2023-04-10T04:08:56;98006.38;;;-2.68;84.00
72210;BME280;60113;48.762;12.302;2023-04-10T04:11:21;98004.66;;;-2.67;83.83
72210;BME280;60113;48.762;12.302;2023-04-10T04:13:46;98002.97;;;-2.68;84.44
72210;BME280;60113;48.762;12.302;2023-04-10T04:16:12;98005.53;;;-2.67;84.27
72210;BME280;60113;48.762;12.302;2023-04-10T04:18:37;97998.63;;;-2.66;79.78
72210;BME280;60113;48.762;12.302;2023-04-10T04:21:03;97999.50;;;-2.66;79.65
72210;BME280;60113;48.762;12.302;2023-04-10T04:23:28;98001.22;;;-2.66;81.55
72210;BME280;60113;48.762;12.302;2023-04-10T04:25:53;98002.03;;;-2.61;82.39
72210;BME280;60113;48.762;12.302;2023-04-10T04:28:21;98000.28;;;-2.62;77.14
72210;BME280;60113;48.762;12.302;2023-04-10T04:30:46;98000.28;;;-2.60;78.92
72210;BME280;60113;48.762;12.302;2023-04-10T04:33:12;97996.00;;;-2.61;83.63
72210;BME280;60113;48.762;12.302;2023-04-10T04:35:37;97991.75;;;-2.64;80.97
72210;BME280;60113;48.762;12.302;2023-04-10T04:38:02;97998.66;;;-2.68;79.42
72210;BME280;60113;48.762;12.302;2023-04-10T04:40:28;98006.41;;;-2.71;81.72
72210;BME280;60113;48.762;12.302;2023-04-10T04:42:53;98007.28;;;-2.73;81.54
72210;BME280;60113;48.762;12.302;2023-04-10T04:45:18;97998.72;;;-2.74;85.44
72210;BME280;60113;48.762;12.302;2023-04-10T04:47:46;98001.28;;;-2.74;85.84
72210;BME280;60113;48.762;12.302;2023-04-10T04:50:11;98009.03;;;-2.76;80.60
72210;BME280;60113;48.762;12.302;2023-04-10T04:52:36;98015.03;;;-2.77;81.58
72210;BME280;60113;48.762;12.302;2023-04-10T04:55:02;98016.75;;;-2.76;86.78
72210;BME280;60113;48.762;12.302;2023-04-10T04:57:27;98019.34;;;-2.80;88.07
72210;BME280;60113;48.762;12.302;2023-04-10T04:59:53;98018.56;;;-2.84;87.15
72210;BME280;60113;48.762;12.302;2023-04-10T05:02:18;98021.13;;;-2.82;90.63
72210;BME280;60113;48.762;12.302;2023-04-10T05:04:46;98020.22;;;-2.81;91.55
72210;BME280;60113;48.762;12.302;2023-04-10T05:07:11;98030.53;;;-2.83;91.20
72210;BME280;60113;48.762;12.302;2023-04-10T05:09:37;98018.53;;;-2.82;92.37
72210;BME280;60113;48.762;12.302;2023-04-10T05:12:02;98028.81;;;-2.82;92.45
72210;BME280;60113;48.762;12.302;2023-04-10T05:14:28;98031.41;;;-2.82;92.13
72210;BME280;60113;48.762;12.302;2023-04-10T05:16:53;98027.97;;;-2.84;84.03
72210;BME280;60113;48.762;12.302;2023-04-10T05:19:19;98026.19;;;-2.76;81.58
72210;BME280;60113;48.762;12.302;2023-04-10T05:21:45;98029.56;;;-2.71;86.16
72210;BME280;60113;48.762;12.302;2023-04-10T05:24:10;98024.38;;;-2.66;88.48
72210;BME280;60113;48.762;12.302;2023-04-10T05:26:36;98023.50;;;-2.65;78.77
72210;BME280;60113;48.762;12.302;2023-04-10T05:29:03;98022.56;;;-2.58;74.34
72210;BME280;60113;48.762;12.302;2023-04-10T05:31:28;98022.44;;;-2.44;84.43
72210;BME280;60113;48.762;12.302;2023-04-10T05:33:54;98018.91;;;-2.35;85.80
72210;BME280;60113;48.762;12.302;2023-04-10T05:36:19;98020.50;;;-2.28;86.01
72210;BME280;60113;48.762;12.302;2023-04-10T05:38:44;98028.13;;;-2.18;87.41
72210;BME280;60113;48.762;12.302;2023-04-10T05:41:10;98029.81;;;-2.14;85.28
72210;BME280;60113;48.762;12.302;2023-04-10T05:43:35;98021.94;;;-2.02;85.26
72210;BME280;60113;48.762;12.302;2023-04-10T05:46:00;98022.50;;;-1.81;85.21
72210;BME280;60113;48.762;12.302;2023-04-10T05:48:26;98023.78;;;-1.48;88.92
72210;BME280;60113;48.762;12.302;2023-04-10T05:50:52;98022.53;;;-1.24;87.37
72210;BME280;60113;48.762;12.302;2023-04-10T05:53:18;98035.16;;;-1.05;89.08
72210;BME280;60113;48.762;12.302;2023-04-10T05:55:44;98033.97;;;-0.84;88.48
72210;BME280;60113;48.762;12.302;2023-04-10T05:58:09;98029.16;;;-0.57;88.09
72210;BME280;60113;48.762;12.302;2023-04-10T06:00:34;98028.69;;;-0.30;88.07
72210;BME280;60113;48.762;12.302;2023-04-10T06:03:01;98034.31;;;-0.09;87.12
72210;BME280;60113;48.762;12.302;2023-04-10T06:05:27;98031.31;;;0.09;87.20
72210;BME280;60113;48.762;12.302;2023-04-10T06:07:53;98031.81;;;0.27;86.72
72210;BME280;60113;48.762;12.302;2023-04-10T06:10:18;98028.59;;;0.57;86.69
72210;BME280;60113;48.762;12.302;2023-04-10T06:12:43;98027.19;;;0.80;87.05
72210;BME280;60113;48.762;12.302;2023-04-10T06:15:09;98030.13;;;1.02;86.75
72210;BME280;60113;48.762;12.302;2023-04-10T06:17:40;98025.94;;;1.31;86.80
72210;BME280;60113;48.762;12.302;2023-04-10T06:20:05;98030.47;;;1.56;86.75
72210;BME280;60113;48.762;12.302;2023-04-10T06:22:31;98027.22;;;1.81;85.72
72210;BME280;60113;48.762;12.302;2023-04-10T06:24:56;98014.25;;;2.11;85.71
72210;BME280;60113;48.762;12.302;2023-04-10T06:27:21;98026.13;;;2.49;84.86
72210;BME280;60113;48.762;12.302;2023-04-10T06:29:47;98024.34;;;2.78;83.87
72210;BME280;60113;48.762;12.302;2023-04-10T06:32:12;98025.91;;;3.11;84.17
72210;BME280;60113;48.762;12.302;2023-04-10T06:34:37;98031.44;;;3.27;83.47
72210;BME280;60113;48.762;12.302;2023-04-10T06:37:03;98030.09;;;3.41;82.74
72210;BME280;60113;48.762;12.302;2023-04-10T06:39:28;98023.47;;;3.57;83.41
72210;BME280;60113;48.762;12.302;2023-04-10T06:41:53;98020.69;;;3.87;84.08
72210;BME280;60113;48.762;12.302;2023-04-10T06:44:20;98026.28;;;4.24;84.93
72210;BME280;60113;48.762;12.302;2023-04-10T06:46:45;98019.09;;;4.54;85.23
72210;BME280;60113;48.762;12.302;2023-04-10T06:49:10;98023.44;;;4.75;83.64
72210;BME280;60113;48.762;12.302;2023-04-10T06:51:36;98024.53;;;4.92;81.94
72210;BME280;60113;48.762;12.302;2023-04-10T06:54:01;98016.03;;;5.09;83.02
72210;BME280;60113;48.762;12.302;2023-04-10T06:56:27;98022.69;;;5.37;85.65
72210;BME280;60113;48.762;12.302;2023-04-10T06:58:52;98013.59;;;5.67;86.43
72210;BME280;60113;48.762;12.302;2023-04-10T07:01:17;98017.66;;;5.94;83.59
72210;BME280;60113;48.762;12.302;2023-04-10T07:03:43;98009.34;;;6.05;80.98
72210;BME280;60113;48.762;12.302;2023-04-10T07:06:09;98006.06;;;6.20;81.27
72210;BME280;60113;48.762;12.302;2023-04-10T07:08:34;98005.78;;;6.46;81.66
72210;BME280;60113;48.762;12.302;2023-04-10T07:10:59;98007.00;;;6.75;82.28
72210;BME280;60113;48.762;12.302;2023-04-10T07:13:25;97996.94;;;7.03;81.25
72210;BME280;60113;48.762;12.302;2023-04-10T07:15:50;97994.03;;;7.27;81.19
72210;BME280;60113;48.762;12.302;2023-04-10T07:18:15;97991.94;;;7.52;80.21
72210;BME280;60113;48.762;12.302;2023-04-10T07:20:41;97984.72;;;7.73;80.70
72210;BME280;60113;48.762;12.302;2023-04-10T07:23:07;97987.06;;;7.95;79.00
72210;BME280;60113;48.762;12.302;2023-04-10T07:25:32;97991.19;;;8.16;80.19
72210;BME280;60113;48.762;12.302;2023-04-10T07:27:57;97979.72;;;8.34;82.57
72210;BME280;60113;48.762;12.302;2023-04-10T07:30:23;97984.00;;;8.51;78.97
72210;BME280;60113;48.762;12.302;2023-04-10T07:32:48;97983.78;;;8.72;78.53
72210;BME280;60113;48.762;12.302;2023-04-10T07:35:14;97984.94;;;8.83;74.55
72210;BME280;60113;48.762;12.302;2023-04-10T07:37:39;97983.19;;;8.98;73.25
72210;BME280;60113;48.762;12.302;2023-04-10T07:40:07;97981.69;;;9.24;80.16
72210;BME280;60113;48.762;12.302;2023-04-10T07:42:33;97984.63;;;9.49;76.81
72210;BME280;60113;48.762;12.302;2023-04-10T07:44:58;97976.22;;;9.73;74.76
72210;BME280;60113;48.762;12.302;2023-04-10T07:47:24;97966.34;;;9.91;74.67
72210;BME280;60113;48.762;12.302;2023-04-10T07:49:49;97968.59;;;9.97;75.53
72210;BME280;60113;48.762;12.302;2023-04-10T07:52:15;97973.69;;;9.86;71.80
72210;BME280;60113;48.762;12.302;2023-04-10T07:54:40;97968.06;;;9.92;71.05
72210;BME280;60113;48.762;12.302;2023-04-10T07:57:06;97977.31;;;9.98;70.96
72210;BME280;60113;48.762;12.302;2023-04-10T07:59:31;97975.16;;;10.05;71.17
72210;BME280;60113;48.762;12.302;2023-04-10T08:01:57;97980.78;;;10.13;70.77
72210;BME280;60113;48.762;12.302;2023-04-10T08:04:22;97977.66;;;10.35;73.20
72210;BME280;60113;48.762;12.302;2023-04-10T08:06:47;97983.44;;;10.55;74.69
72210;BME280;60113;48.762;12.302;2023-04-10T08:09:15;97989.16;;;10.62;71.29
72210;BME280;60113;48.762;12.302;2023-04-10T08:11:40;97989.38;;;10.72;69.17
72210;BME280;60113;48.762;12.302;2023-04-10T08:14:05;97988.78;;;10.81;71.81
72210;BME280;60113;48.762;12.302;2023-04-10T08:16:31;97988.06;;;10.92;72.28
72210;BME280;60113;48.762;12.302;2023-04-10T08:18:58;97983.59;;;11.07;70.64
72210;BME280;60113;48.762;12.302;2023-04-10T08:21:24;97982.25;;;11.15;67.31
72210;BME280;60113;48.762;12.302;2023-04-10T08:23:51;97989.44;;;10.98;60.59
72210;BME280;60113;48.762;12.302;2023-04-10T08:26:17;97996.72;;;11.07;62.97
72210;BME280;60113;48.762;12.302;2023-04-10T08:28:45;97988.66;;;11.23;68.17
72210;BME280;60113;48.762;12.302;2023-04-10T08:31:13;97982.16;;;11.42;69.26
72210;BME280;60113;48.762;12.302;2023-04-10T08:33:39;97980.91;;;11.61;67.08
72210;BME280;60113;48.762;12.302;2023-04-10T08:36:06;97979.75;;;11.78;65.59
72210;BME280;60113;48.762;12.302;2023-04-10T08:38:32;97975.31;;;11.92;64.39
72210;BME280;60113;48.762;12.302;2023-04-10T08:40:57;97963.38;;;11.99;61.71
72210;BME280;60113;48.762;12.302;2023-04-10T08:43:24;97970.56;;;12.10;64.59
72210;BME280;60113;48.762;12.302;2023-04-10T08:45:50;97968.00;;;12.21;60.69
72210;BME280;60113;48.762;12.302;2023-04-10T08:48:16;97969.25;;;12.29;57.03
72210;BME280;60113;48.762;12.302;2023-04-10T08:50:44;97966.34;;;12.45;62.22
72210;BME280;60113;48.762;12.302;2023-04-10T08:53:10;97962.19;;;12.54;62.48
72210;BME280;60113;48.762;12.302;2023-04-10T08:55:37;97962.53;;;12.49;65.11
72210;BME280;60113;48.762;12.302;2023-04-10T08:58:02;97965.91;;;12.51;57.75
72210;BME280;60113;48.762;12.302;2023-04-10T09:00:28;97962.53;;;12.49;60.63
72210;BME280;60113;48.762;12.302;2023-04-10T09:02:58;97963.00;;;12.30;56.63
72210;BME280;60113;48.762;12.302;2023-04-10T09:05:25;97959.34;;;12.32;60.18
72210;BME280;60113;48.762;12.302;2023-04-10T09:07:50;97960.81;;;12.23;57.77
72210;BME280;60113;48.762;12.302;2023-04-10T09:10:16;97956.75;;;12.44;57.06
72210;BME280;60113;48.762;12.302;2023-04-10T09:12:42;97960.06;;;12.59;57.56
72210;BME280;60113;48.762;12.302;2023-04-10T09:15:08;97958.72;;;12.53;59.60
72210;BME280;60113;48.762;12.302;2023-04-10T09:17:33;97954.19;;;12.55;58.04
72210;BME280;60113;48.762;12.302;2023-04-10T09:19:58;97948.50;;;12.48;57.62
72210;BME280;60113;48.762;12.302;2023-04-10T09:22:30;97944.59;;;12.54;54.76
72210;BME280;60113;48.762;12.302;2023-04-10T09:24:57;97951.09;;;12.61;56.69
72210;BME280;60113;48.762;12.302;2023-04-10T09:27:35;97951.09;;;12.61;56.36
72210;BME280;60113;48.762;12.302;2023-04-10T09:30:03;97944.81;;;12.87;60.76
72210;BME280;60113;48.762;12.302;2023-04-10T09:32:43;97942.25;;;12.98;53.97
72210;BME280;60113;48.762;12.302;2023-04-10T09:35:10;97943.84;;;13.12;56.68
72210;BME280;60113;48.762;12.302;2023-04-10T09:37:36;97931.28;;;13.39;54.95
72210;BME280;60113;48.762;12.302;2023-04-10T09:40:02;97930.38;;;13.74;54.36
72210;BME280;60113;48.762;12.302;2023-04-10T09:42:32;97926.91;;;13.62;52.52
72210;BME280;60113;48.762;12.302;2023-04-10T09:44:57;97927.63;;;13.53;55.29
72210;BME280;60113;48.762;12.302;2023-04-10T09:47:23;97930.22;;;13.30;55.02
72210;BME280;60113;48.762;12.302;2023-04-10T09:52:17;97919.66;;;12.83;50.92
72210;BME280;60113;48.762;12.302;2023-04-10T09:54:43;97922.81;;;12.99;56.16
72210;BME280;60113;48.762;12.302;2023-04-10T09:57:10;97909.03;;;13.07;54.19
72210;BME280;60113;48.762;12.302;2023-04-10T09:59:36;97914.31;;;13.07;53.93
72210;BME280;60113;48.762;12.302;2023-04-10T10:02:02;97913.97;;;12.76;52.71
72210;BME280;60113;48.762;12.302;2023-04-10T10:04:28;97912.34;;;12.86;52.17
72210;BME280;60113;48.762;12.302;2023-04-10T10:06:53;97909.06;;;12.71;51.06
72210;BME280;60113;48.762;12.302;2023-04-10T10:09:19;97895.22;;;12.92;55.26
72210;BME280;60113;48.762;12.302;2023-04-10T10:11:45;97887.59;;;13.12;56.25
72210;BME280;60113;48.762;12.302;2023-04-10T10:14:14;97886.53;;;13.26;53.97
72210;BME280;60113;48.762;12.302;2023-04-10T10:16:46;97879.50;;;13.61;53.73
72210;BME280;60113;48.762;12.302;2023-04-10T10:21:44;97875.03;;;13.84;52.10
72210;BME280;60113;48.762;12.302;2023-04-10T10:24:11;97881.81;;;14.10;52.62
72210;BME280;60113;48.762;12.302;2023-04-10T10:26:40;97883.06;;;13.94;49.28
72210;BME280;60113;48.762;12.302;2023-04-10T10:29:07;97875.34;;;14.03;50.37
72210;BME280;60113;48.762;12.302;2023-04-10T10:31:38;97874.69;;;14.22;54.88
72210;BME280;60113;48.762;12.302;2023-04-10T10:34:04;97863.56;;;14.07;51.14
72210;BME280;60113;48.762;12.302;2023-04-10T10:36:32;97874.75;;;14.10;51.26
72210;BME280;60113;48.762;12.302;2023-04-10T10:39:02;97861.31;;;14.35;49.26
72210;BME280;60113;48.762;12.302;2023-04-10T10:41:34;97859.31;;;14.60;52.71
72210;BME280;60113;48.762;12.302;2023-04-10T10:44:22;97848.25;;;14.87;49.30
72210;BME280;60113;48.762;12.302;2023-04-10T10:46:58;97855.28;;;14.98;46.07
72210;BME280;60113;48.762;12.302;2023-04-10T10:50:10;97850.19;;;15.17;48.78
72210;BME280;60113;48.762;12.302;2023-04-10T10:52:10;97842.75;;;15.00;49.02
72210;BME280;60113;48.762;12.302;2023-04-10T10:54:36;97850.78;;;14.56;48.08
72210;BME280;60113;48.762;12.302;2023-04-10T10:57:02;97839.72;;;14.30;46.29
72210;BME280;60113;48.762;12.302;2023-04-10T11:02:11;97835.56;;;14.16;46.88
72210;BME280;60113;48.762;12.302;2023-04-10T11:04:44;97840.13;;;14.46;49.71
72210;BME280;60113;48.762;12.302;2023-04-10T11:07:09;97820.41;;;14.72;44.59
72210;BME280;60113;48.762;12.302;2023-04-10T11:09:44;97815.84;;;14.74;43.74
72210;BME280;60113;48.762;12.302;2023-04-10T11:12:12;97818.47;;;14.95;46.38
72210;BME280;60113;48.762;12.302;2023-04-10T11:14:38;97807.31;;;15.23;51.87
72210;BME280;60113;48.762;12.302;2023-04-10T11:17:04;97799.31;;;15.34;46.33
72210;BME280;60113;48.762;12.302;2023-04-10T11:19:29;97807.78;;;15.28;51.27
72210;BME280;60113;48.762;12.302;2023-04-10T11:22:15;97798.44;;;14.93;42.61
72210;BME280;60113;48.762;12.302;2023-04-10T11:24:56;97793.25;;;14.91;44.24
72210;BME280;60113;48.762;12.302;2023-04-10T11:30:27;97796.88;;;15.21;47.06
72210;BME280;60113;48.762;12.302;2023-04-10T11:32:53;97789.97;;;15.30;43.13
72210;BME280;60113;48.762;12.302;2023-04-10T11:35:21;97779.81;;;15.45;46.11
72210;BME280;60113;48.762;12.302;2023-04-10T11:37:46;97785.03;;;15.67;45.89
72210;BME280;60113;48.762;12.302;2023-04-10T11:40:13;97772.22;;;15.82;44.40
72210;BME280;60113;48.762;12.302;2023-04-10T11:42:39;97774.00;;;15.61;46.60
72210;BME280;60113;48.762;12.302;2023-04-10T11:47:51;97763.94;;;15.45;39.90
72210;BME280;60113;48.762;12.302;2023-04-10T11:51:46;97760.50;;;15.74;47.83
72210;BME280;60113;48.762;12.302;2023-04-10T11:54:15;97754.09;;;15.77;50.47
72210;BME280;60113;48.762;12.302;2023-04-10T11:56:45;97755.38;;;15.83;44.65
72210;BME280;60113;48.762;12.302;2023-04-10T11:59:20;97748.53;;;15.70;51.27
72210;BME280;60113;48.762;12.302;2023-04-10T12:01:46;97750.03;;;15.73;49.47
72210;BME280;60113;48.762;12.302;2023-04-10T12:04:14;97747.69;;;15.90;49.17
72210;BME280;60113;48.762;12.302;2023-04-10T12:06:51;97749.78;;;15.86;40.03
72210;BME280;60113;48.762;12.302;2023-04-10T12:09:19;97739.69;;;15.60;38.94
72210;BME280;60113;48.762;12.302;2023-04-10T12:12:32;97735.13;;;15.72;48.55
72210;BME280;60113;48.762;12.302;2023-04-10T12:14:41;97743.09;;;16.02;51.84
72210;BME280;60113;48.762;12.302;2023-04-10T12:17:10;97739.63;;;16.31;46.11
72210;BME280;60113;48.762;12.302;2023-04-10T12:19:37;97731.34;;;16.54;47.74
72210;BME280;60113;48.762;12.302;2023-04-10T12:22:03;97739.47;;;16.32;45.25
72210;BME280;60113;48.762;12.302;2023-04-10T12:24:45;97733.47;;;16.40;42.94
72210;BME280;60113;48.762;12.302;2023-04-10T12:27:15;97728.16;;;16.30;45.12
72210;BME280;60113;48.762;12.302;2023-04-10T12:29:42;97728.72;;;15.94;46.55
72210;BME280;60113;48.762;12.302;2023-04-10T12:32:08;97728.84;;;15.93;47.63
72210;BME280;60113;48.762;12.302;2023-04-10T12:34:35;97726.94;;;16.15;49.74
72210;BME280;60113;48.762;12.302;2023-04-10T12:37:01;97726.34;;;16.41;49.48
72210;BME280;60113;48.762;12.302;2023-04-10T12:39:27;97721.06;;;16.31;41.59
72210;BME280;60113;48.762;12.302;2023-04-10T12:41:52;97717.56;;;16.20;45.80
72210;BME280;60113;48.762;12.302;2023-04-10T12:44:18;97719.09;;;15.93;43.07
72210;BME280;60113;48.762;12.302;2023-04-10T12:46:45;97713.81;;;16.03;47.99
72210;BME280;60113;48.762;12.302;2023-04-10T12:49:15;97710.47;;;16.11;42.01
72210;BME280;60113;48.762;12.302;2023-04-10T12:51:51;97712.81;;;16.14;39.81
72210;BME280;60113;48.762;12.302;2023-04-10T12:54:35;97710.06;;;16.06;38.66
72210;BME280;60113;48.762;12.302;2023-04-10T12:57:01;97718.41;;;16.21;45.12
72210;BME280;60113;48.762;12.302;2023-04-10T12:59:31;97710.75;;;16.28;42.08
72210;BME280;60113;48.762;12.302;2023-04-10T13:01:57;97713.25;;;16.09;46.82
72210;BME280;60113;48.762;12.302;2023-04-10T13:04:22;97709.78;;;16.09;46.14
72210;BME280;60113;48.762;12.302;2023-04-10T13:06:48;97703.53;;;16.00;43.76
72210;BME280;60113;48.762;12.302;2023-04-10T13:09:17;97710.03;;;15.96;45.98
72210;BME280;60113;48.762;12.302;2023-04-10T13:11:43;97700.25;;;15.86;45.72
72210;BME280;60113;48.762;12.302;2023-04-10T13:14:08;97697.91;;;15.93;45.77
72210;BME280;60113;48.762;12.302;2023-04-10T13:16:34;97688.28;;;15.62;45.74
72210;BME280;60113;48.762;12.302;2023-04-10T13:19:00;97696.06;;;15.74;46.22
72210;BME280;60113;48.762;12.302;2023-04-10T13:21:26;97687.88;;;15.87;46.22